sensor_id;sensor_type;location;lat;lon;timestamp;pressure;altitude;pressure_sealevel;temperature
15544;BMP180;7873;52.230;12.856;2023-03-29T00:01:38;101292.50;;;25.63
15544;BMP180;7873;52.230;12.856;2023-03-29T00:04:07;101290.69;;;25.56
15544;BMP180;7873;52.230;12.856;2023-03-29T00:06:34;101290.63;;;25.64
15544;BMP180;7873;52.230;12.856;2023-03-29T00:09:02;101290.63;;;25.64
15544;BMP180;7873;52.230;12.856;2023-03-29T00:11:31;101290.69;;;25.56
15544;BMP180;7873;52.230;12.856;2023-03-29T00:13:58;101273.38;;;25.51
15544;BMP180;7873;52.230;12.856;2023-03-29T00:16:25;101277.28;;;25.48
15544;BMP180;7873;52.230;12.856;2023-03-29T00:18:52;101272.25;;;25.45
15544;BMP180;7873;52.230;12.856;2023-03-29T00:21:19;101266.38;;;25.42
15544;BMP180;7873;52.230;12.856;2023-03-29T00:23:46;101262.34;;;25.38
15544;BMP180;7873;52.230;12.856;2023-03-29T00:26:13;101265.72;;;25.40
15544;BMP180;7873;52.230;12.856;2023-03-29T00:28:39;101270.63;;;25.36
15544;BMP180;7873;52.230;12.856;2023-03-29T00:31:08;101258.72;;;25.31
15544;BMP180;7873;52.230;12.856;2023-03-29T00:33:37;101257.84;;;25.30
15544;BMP180;7873;52.230;12.856;2023-03-29T00:36:04;101261.75;;;25.28
15544;BMP180;7873;52.230;12.856;2023-03-29T00:38:31;101260.25;;;25.25
15544;BMP180;7873;52.230;12.856;2023-03-29T00:40:58;101258.59;;;25.16
15544;BMP180;7873;52.230;12.856;2023-03-29T00:43:25;101250.03;;;25.13
15544;BMP180;7873;52.230;12.856;2023-03-29T00:45:52;101249.38;;;25.11
15544;BMP180;7873;52.230;12.856;2023-03-29T00:48:21;101248.16;;;25.13
15544;BMP180;7873;52.230;12.856;2023-03-29T00:50:53;101251.22;;;25.10
15544;BMP180;7873;52.230;12.856;2023-03-29T00:53:24;101242.84;;;25.05
15544;BMP180;7873;52.230;12.856;2023-03-29T00:55:56;101247.47;;;24.89
15544;BMP180;7873;52.230;12.856;2023-03-29T00:58:27;101247.47;;;24.89
15544;BMP180;7873;52.230;12.856;2023-03-29T01:00:58;101235.84;;;24.96
15544;BMP180;7873;52.230;12.856;2023-03-29T01:03:29;101230.44;;;24.96
15544;BMP180;7873;52.230;12.856;2023-03-29T01:06:02;101229.75;;;24.94
15544;BMP180;7873;52.230;12.856;2023-03-29T01:08:33;101227.06;;;24.94
15544;BMP180;7873;52.230;12.856;2023-03-29T01:11:05;101220.34;;;24.90
15544;BMP180;7873;52.230;12.856;2023-03-29T01:13:36;101218.22;;;24.86
15544;BMP180;7873;52.230;12.856;2023-03-29T01:16:05;101217.34;;;24.85
15544;BMP180;7873;52.230;12.856;2023-03-29T01:18:33;101213.16;;;24.83
15544;BMP180;7873;52.230;12.856;2023-03-29T01:21:11;101200.22;;;24.78
15544;BMP180;7873;52.230;12.856;2023-03-29T01:23:52;101193.53;;;24.74
15544;BMP180;7873;52.230;12.856;2023-03-29T01:26:26;101182.56;;;24.76
15544;BMP180;7873;52.230;12.856;2023-03-29T01:29:00;101187.28;;;24.74
15544;BMP180;7873;52.230;12.856;2023-03-29T01:31:31;101183.28;;;24.70
15544;BMP180;7873;52.230;12.856;2023-03-29T01:34:04;101182.63;;;24.68
15544;BMP180;7873;52.230;12.856;2023-03-29T01:36:37;101183.78;;;24.65
15544;BMP180;7873;52.230;12.856;2023-03-29T01:39:05;101177.59;;;24.65
15544;BMP180;7873;52.230;12.856;2023-03-29T01:41:35;101176.72;;;24.64
15544;BMP180;7873;52.230;12.856;2023-03-29T01:44:11;101178.97;;;24.61
15544;BMP180;7873;52.230;12.856;2023-03-29T01:46:44;101174.91;;;24.57
15544;BMP180;7873;52.230;12.856;2023-03-29T01:49:15;101166.16;;;24.55
15544;BMP180;7873;52.230;12.856;2023-03-29T01:51:48;101156.41;;;24.54
15544;BMP180;7873;52.230;12.856;2023-03-29T01:54:19;101156.41;;;24.54
15544;BMP180;7873;52.230;12.856;2023-03-29T01:56:48;101157.75;;;24.50
15544;BMP180;7873;52.230;12.856;2023-03-29T01:59:19;101159.97;;;24.46
15544;BMP180;7873;52.230;12.856;2023-03-29T02:01:49;101149.38;;;24.45
15544;BMP180;7873;52.230;12.856;2023-03-29T02:04:18;101141.47;;;24.43
15544;BMP180;7873;52.230;12.856;2023-03-29T02:06:47;101139.13;;;24.40
15544;BMP180;7873;52.230;12.856;2023-03-29T02:09:15;101140.34;;;24.38
15544;BMP180;7873;52.230;12.856;2023-03-29T02:11:43;101143.34;;;24.35
15544;BMP180;7873;52.230;12.856;2023-03-29T02:14:10;101138.66;;;24.37
15544;BMP180;7873;52.230;12.856;2023-03-29T02:16:39;101138.66;;;24.37
15544;BMP180;7873;52.230;12.856;2023-03-29T02:19:06;101131.25;;;24.39
15544;BMP180;7873;52.230;12.856;2023-03-29T02:21:38;101133.59;;;24.34
15544;BMP180;7873;52.230;12.856;2023-03-29T02:24:08;101124.06;;;24.31
15544;BMP180;7873;52.230;12.856;2023-03-29T02:26:35;101123.03;;;24.32
15544;BMP180;7873;52.230;12.856;2023-03-29T02:29:02;101119.69;;;24.30
15544;BMP180;7873;52.230;12.856;2023-03-29T02:31:33;101115.47;;;24.28
15544;BMP180;7873;52.230;12.856;2023-03-29T02:34:07;101108.59;;;24.25
15544;BMP180;7873;52.230;12.856;2023-03-29T02:36:39;101106.22;;;24.30
15544;BMP180;7873;52.230;12.856;2023-03-29T02:39:09;101100.19;;;24.28
15544;BMP180;7873;52.230;12.856;2023-03-29T02:41:39;101102.22;;;24.26
15544;BMP180;7873;52.230;12.856;2023-03-29T02:44:09;101096.34;;;24.23
15544;BMP180;7873;52.230;12.856;2023-03-29T02:46:39;101100.03;;;24.22
15544;BMP180;7873;52.230;12.856;2023-03-29T02:49:09;101094.16;;;24.18
15544;BMP180;7873;52.230;12.856;2023-03-29T02:51:36;101092.47;;;24.17
15544;BMP180;7873;52.230;12.856;2023-03-29T02:54:06;101095.00;;;24.19
15544;BMP180;7873;52.230;12.856;2023-03-29T02:56:40;101094.16;;;24.18
15544;BMP180;7873;52.230;12.856;2023-03-29T02:59:07;101085.44;;;24.16
15544;BMP180;7873;52.230;12.856;2023-03-29T03:01:34;101080.25;;;24.15
15544;BMP180;7873;52.230;12.856;2023-03-29T03:04:01;101079.75;;;24.11
15544;BMP180;7873;52.230;12.856;2023-03-29T03:06:30;101073.69;;;24.09
15544;BMP180;7873;52.230;12.856;2023-03-29T03:08:56;101074.72;;;24.08
15544;BMP180;7873;52.230;12.856;2023-03-29T03:11:23;101076.56;;;24.08
15544;BMP180;7873;52.230;12.856;2023-03-29T03:13:50;101074.88;;;24.07
15544;BMP180;7873;52.230;12.856;2023-03-29T03:16:17;101066.81;;;24.07
15544;BMP180;7873;52.230;12.856;2023-03-29T03:18:43;101065.97;;;24.06
15544;BMP180;7873;52.230;12.856;2023-03-29T03:21:10;101063.97;;;24.00
15544;BMP180;7873;52.230;12.856;2023-03-29T03:23:39;101056.75;;;24.01
15544;BMP180;7873;52.230;12.856;2023-03-29T03:26:06;101064.16;;;23.99
15544;BMP180;7873;52.230;12.856;2023-03-29T03:28:33;101057.81;;;23.84
15544;BMP180;7873;52.230;12.856;2023-03-29T03:30:59;101055.97;;;23.76
15544;BMP180;7873;52.230;12.856;2023-03-29T03:33:26;101058.34;;;23.72
15544;BMP180;7873;52.230;12.856;2023-03-29T03:35:53;101050.66;;;23.61
15544;BMP180;7873;52.230;12.856;2023-03-29T03:38:21;101056.53;;;23.64
15544;BMP180;7873;52.230;12.856;2023-03-29T03:40:53;101047.28;;;23.67
15544;BMP180;7873;52.230;12.856;2023-03-29T03:43:20;101044.44;;;23.68
15544;BMP180;7873;52.230;12.856;2023-03-29T03:45:47;101044.25;;;23.70
15544;BMP180;7873;52.230;12.856;2023-03-29T03:48:14;101057.53;;;23.71
15544;BMP180;7873;52.230;12.856;2023-03-29T03:50:46;101047.25;;;23.74
15544;BMP180;7873;52.230;12.856;2023-03-29T03:53:14;101044.75;;;23.73
15544;BMP180;7873;52.230;12.856;2023-03-29T03:55:41;101041.56;;;23.70
15544;BMP180;7873;52.230;12.856;2023-03-29T03:58:10;101040.03;;;23.75
15544;BMP180;7873;52.230;12.856;2023-03-29T04:00:37;101033.63;;;23.76
15544;BMP180;7873;52.230;12.856;2023-03-29T04:03:03;101030.75;;;23.77
15544;BMP180;7873;52.230;12.856;2023-03-29T04:05:31;101031.00;;;23.60
15544;BMP180;7873;52.230;12.856;2023-03-29T04:07:58;101029.50;;;23.58
15544;BMP180;7873;52.230;12.856;2023-03-29T04:10:25;101031.03;;;23.52
15544;BMP180;7873;52.230;12.856;2023-03-29T04:12:52;101029.00;;;23.54
15544;BMP180;7873;52.230;12.856;2023-03-29T04:15:20;101035.25;;;23.47
15544;BMP180;7873;52.230;12.856;2023-03-29T04:17:46;101040.47;;;23.48
15544;BMP180;7873;52.230;12.856;2023-03-29T04:20:13;101032.22;;;23.50
15544;BMP180;7873;52.230;12.856;2023-03-29T04:22:40;101037.59;;;23.50
15544;BMP180;7873;52.230;12.856;2023-03-29T04:25:07;101032.91;;;23.44
15544;BMP180;7873;52.230;12.856;2023-03-29T04:27:34;101035.09;;;23.40
15544;BMP180;7873;52.230;12.856;2023-03-29T04:30:02;101025.19;;;23.41
15544;BMP180;7873;52.230;12.856;2023-03-29T04:32:30;101030.56;;;23.41
15544;BMP180;7873;52.230;12.856;2023-03-29T04:34:57;101019.31;;;23.45
15544;BMP180;7873;52.230;12.856;2023-03-29T04:37:23;101019.63;;;23.42
15544;BMP180;7873;52.230;12.856;2023-03-29T04:39:50;101027.91;;;23.33
15544;BMP180;7873;52.230;12.856;2023-03-29T04:42:17;101030.59;;;23.33
15544;BMP180;7873;52.230;12.856;2023-03-29T04:44:43;101020.22;;;23.14
15544;BMP180;7873;52.230;12.856;2023-03-29T04:47:10;101015.31;;;23.17
15544;BMP180;7873;52.230;12.856;2023-03-29T04:49:39;101014.84;;;23.14
15544;BMP180;7873;52.230;12.856;2023-03-29T04:52:07;101016.00;;;23.11
15544;BMP180;7873;52.230;12.856;2023-03-29T04:54:34;101016.19;;;22.94
15544;BMP180;7873;52.230;12.856;2023-03-29T04:57:01;101007.59;;;23.06
15544;BMP180;7873;52.230;12.856;2023-03-29T04:59:28;101006.25;;;23.18
15544;BMP180;7873;52.230;12.856;2023-03-29T05:01:55;101000.56;;;23.21
15544;BMP180;7873;52.230;12.856;2023-03-29T05:04:21;100998.53;;;23.23
15544;BMP180;7873;52.230;12.856;2023-03-29T05:06:50;100996.88;;;23.14
15544;BMP180;7873;52.230;12.856;2023-03-29T05:09:17;101001.41;;;23.14
15544;BMP180;7873;52.230;12.856;2023-03-29T05:11:43;100999.38;;;23.00
15544;BMP180;7873;52.230;12.856;2023-03-29T05:14:10;100992.69;;;22.96
15544;BMP180;7873;52.230;12.856;2023-03-29T05:16:37;100990.63;;;23.06
15544;BMP180;7873;52.230;12.856;2023-03-29T05:19:06;100982.41;;;23.07
15544;BMP180;7873;52.230;12.856;2023-03-29T05:21:33;100984.28;;;22.99
15544;BMP180;7873;52.230;12.856;2023-03-29T05:24:02;100988.00;;;22.82
15544;BMP180;7873;52.230;12.856;2023-03-29T05:26:29;100980.94;;;22.81
15544;BMP180;7873;52.230;12.856;2023-03-29T05:28:56;100989.19;;;22.79
15544;BMP180;7873;52.230;12.856;2023-03-29T05:31:23;100986.16;;;22.74
15544;BMP180;7873;52.230;12.856;2023-03-29T05:33:49;100982.13;;;22.70
15544;BMP180;7873;52.230;12.856;2023-03-29T05:36:17;100987.00;;;22.67
15544;BMP180;7873;52.230;12.856;2023-03-29T05:38:45;100990.69;;;22.66
15544;BMP180;7873;52.230;12.856;2023-03-29T05:41:14;100996.22;;;22.64
15544;BMP180;7873;52.230;12.856;2023-03-29T05:43:42;101002.09;;;22.60
15544;BMP180;7873;52.230;12.856;2023-03-29T05:46:08;100996.72;;;22.60
15544;BMP180;7873;52.230;12.856;2023-03-29T05:48:36;100993.56;;;22.56
15544;BMP180;7873;52.230;12.856;2023-03-29T05:51:03;100989.34;;;22.54
15544;BMP180;7873;52.230;12.856;2023-03-29T05:53:30;100994.91;;;22.52
15544;BMP180;7873;52.230;12.856;2023-03-29T05:55:57;100986.16;;;22.50
15544;BMP180;7873;52.230;12.856;2023-03-29T05:58:25;100994.88;;;22.44
15544;BMP180;7873;52.230;12.856;2023-03-29T06:00:53;100991.53;;;22.42
15544;BMP180;7873;52.230;12.856;2023-03-29T06:03:21;100982.81;;;22.40
15544;BMP180;7873;52.230;12.856;2023-03-29T06:05:55;100984.66;;;22.40
15544;BMP180;7873;52.230;12.856;2023-03-29T06:08:23;100981.44;;;22.36
15544;BMP180;7873;52.230;12.856;2023-03-29T06:10:50;100973.22;;;22.38
15544;BMP180;7873;52.230;12.856;2023-03-29T06:13:17;100976.75;;;22.38
15544;BMP180;7873;52.230;12.856;2023-03-29T06:15:45;100972.72;;;22.34
15544;BMP180;7873;52.230;12.856;2023-03-29T06:18:12;100984.25;;;22.35
15544;BMP180;7873;52.230;12.856;2023-03-29T06:20:38;100977.41;;;22.32
15544;BMP180;7873;52.230;12.856;2023-03-29T06:23:05;100973.53;;;22.35
15544;BMP180;7873;52.230;12.856;2023-03-29T06:25:33;100974.22;;;22.29
15544;BMP180;7873;52.230;12.856;2023-03-29T06:27:59;100967.00;;;22.29
15544;BMP180;7873;52.230;12.856;2023-03-29T06:30:26;100964.16;;;22.31
15544;BMP180;7873;52.230;12.856;2023-03-29T06:32:54;100963.63;;;22.27
15544;BMP180;7873;52.230;12.856;2023-03-29T06:35:22;100960.13;;;22.27
15544;BMP180;7873;52.230;12.856;2023-03-29T06:37:48;100961.13;;;22.26
15544;BMP180;7873;52.230;12.856;2023-03-29T06:40:15;100971.84;;;22.26
15544;BMP180;7873;52.230;12.856;2023-03-29T06:42:44;100973.69;;;22.25
15544;BMP180;7873;52.230;12.856;2023-03-29T06:45:11;100969.31;;;22.24
15544;BMP180;7873;52.230;12.856;2023-03-29T06:47:37;100966.84;;;22.23
15544;BMP180;7873;52.230;12.856;2023-03-29T06:50:07;100973.19;;;22.22
15544;BMP180;7873;52.230;12.856;2023-03-29T06:52:35;100970.00;;;22.18
15544;BMP180;7873;52.230;12.856;2023-03-29T06:55:02;100965.50;;;22.19
15544;BMP180;7873;52.230;12.856;2023-03-29T06:57:32;100964.81;;;22.17
15544;BMP180;7873;52.230;12.856;2023-03-29T06:59:58;100966.66;;;22.16
15544;BMP180;7873;52.230;12.856;2023-03-29T07:02:25;100969.19;;;22.18
15544;BMP180;7873;52.230;12.856;2023-03-29T07:04:53;100962.13;;;22.17
15544;BMP180;7873;52.230;12.856;2023-03-29T07:07:21;100962.28;;;22.15
15544;BMP180;7873;52.230;12.856;2023-03-29T07:09:51;100971.34;;;22.14
15544;BMP180;7873;52.230;12.856;2023-03-29T07:12:20;100970.66;;;22.12
15544;BMP180;7873;52.230;12.856;2023-03-29T07:14:47;100969.00;;;22.11
15544;BMP180;7873;52.230;12.856;2023-03-29T07:17:14;100974.19;;;22.13
15544;BMP180;7873;52.230;12.856;2023-03-29T07:19:42;100974.34;;;22.11
15544;BMP180;7873;52.230;12.856;2023-03-29T07:22:09;100974.69;;;22.08
15544;BMP180;7873;52.230;12.856;2023-03-29T07:24:37;100977.38;;;22.08
15544;BMP180;7873;52.230;12.856;2023-03-29T07:27:04;100978.03;;;22.10
15544;BMP180;7873;52.230;12.856;2023-03-29T07:29:31;100983.56;;;22.09
15544;BMP180;7873;52.230;12.856;2023-03-29T07:31:58;100984.91;;;22.05
15544;BMP180;7873;52.230;12.856;2023-03-29T07:34:25;100971.97;;;22.00
15544;BMP180;7873;52.230;12.856;2023-03-29T07:36:54;100982.22;;;22.05
15544;BMP180;7873;52.230;12.856;2023-03-29T07:39:22;100985.06;;;22.03
15544;BMP180;7873;52.230;12.856;2023-03-29T07:41:51;100989.59;;;22.03
15544;BMP180;7873;52.230;12.856;2023-03-29T07:44:17;100981.03;;;21.99
15544;BMP180;7873;52.230;12.856;2023-03-29T07:46:45;100980.88;;;22.01
15544;BMP180;7873;52.230;12.856;2023-03-29T07:49:12;100970.97;;;22.01
15544;BMP180;7873;52.230;12.856;2023-03-29T07:51:39;100975.84;;;21.98
15544;BMP180;7873;52.230;12.856;2023-03-29T07:54:06;100976.84;;;21.97
15544;BMP180;7873;52.230;12.856;2023-03-29T07:56:33;100969.97;;;21.95
15544;BMP180;7873;52.230;12.856;2023-03-29T07:59:01;100976.31;;;21.94
15544;BMP180;7873;52.230;12.856;2023-03-29T08:01:28;100964.41;;;21.88
15544;BMP180;7873;52.230;12.856;2023-03-29T08:03:55;100966.41;;;21.86
15544;BMP180;7873;52.230;12.856;2023-03-29T08:06:21;100955.69;;;21.86
15544;BMP180;7873;52.230;12.856;2023-03-29T08:08:50;100952.00;;;21.87
15544;BMP180;7873;52.230;12.856;2023-03-29T08:11:17;100946.50;;;21.89
15544;BMP180;7873;52.230;12.856;2023-03-29T08:13:44;100948.31;;;21.88
15544;BMP180;7873;52.230;12.856;2023-03-29T08:16:12;100950.00;;;21.89
15544;BMP180;7873;52.230;12.856;2023-03-29T08:18:39;100951.19;;;21.87
15544;BMP180;7873;52.230;12.856;2023-03-29T08:21:06;100943.13;;;21.87
15544;BMP180;7873;52.230;12.856;2023-03-29T08:23:33;100938.94;;;21.84
15544;BMP180;7873;52.230;12.856;2023-03-29T08:26:00;100933.56;;;21.84
15544;BMP180;7873;52.230;12.856;2023-03-29T08:28:26;100931.91;;;21.83
15544;BMP180;7873;52.230;12.856;2023-03-29T08:30:53;100933.75;;;21.83
15544;BMP180;7873;52.230;12.856;2023-03-29T08:33:21;100925.00;;;21.81
15544;BMP180;7873;52.230;12.856;2023-03-29T08:35:48;100930.53;;;21.79
15544;BMP180;7873;52.230;12.856;2023-03-29T08:38:15;100928.88;;;21.78
15544;BMP180;7873;52.230;12.856;2023-03-29T08:40:42;100929.53;;;21.80
15544;BMP180;7873;52.230;12.856;2023-03-29T08:46:08;100931.88;;;21.75
15544;BMP180;7873;52.230;12.856;2023-03-29T08:48:44;100932.72;;;21.76
15544;BMP180;7873;52.230;12.856;2023-03-29T08:51:17;100933.38;;;21.78
15544;BMP180;7873;52.230;12.856;2023-03-29T08:53:48;100925.19;;;21.79
15544;BMP180;7873;52.230;12.856;2023-03-29T08:56:19;100921.84;;;21.77
15544;BMP180;7873;52.230;12.856;2023-03-29T08:58:48;100926.34;;;21.77
15544;BMP180;7873;52.230;12.856;2023-03-29T09:01:16;100920.97;;;21.77
15544;BMP180;7873;52.230;12.856;2023-03-29T09:03:46;100912.44;;;21.73
15544;BMP180;7873;52.230;12.856;2023-03-29T09:06:15;100920.63;;;21.72
15544;BMP180;7873;52.230;12.856;2023-03-29T09:08:46;100922.66;;;21.70
15544;BMP180;7873;52.230;12.856;2023-03-29T09:11:27;100921.97;;;21.68
15544;BMP180;7873;52.230;12.856;2023-03-29T09:14:05;100912.78;;;21.70
15544;BMP180;7873;52.230;12.856;2023-03-29T09:16:37;100916.13;;;21.72
15544;BMP180;7873;52.230;12.856;2023-03-29T09:19:17;100918.81;;;21.72
15544;BMP180;7873;52.230;12.856;2023-03-29T09:21:49;100916.13;;;21.72
15544;BMP180;7873;52.230;12.856;2023-03-29T09:24:39;100914.13;;;21.74
15544;BMP180;7873;52.230;12.856;2023-03-29T09:27:13;100916.81;;;21.74
15544;BMP180;7873;52.230;12.856;2023-03-29T09:29:51;100913.75;;;21.69
15544;BMP180;7873;52.230;12.856;2023-03-29T09:32:23;100915.75;;;21.67
15544;BMP180;7873;52.230;12.856;2023-03-29T09:35:01;100911.59;;;21.65
15544;BMP180;7873;52.230;12.856;2023-03-29T09:37:31;100902.53;;;21.66
15544;BMP180;7873;52.230;12.856;2023-03-29T09:39:59;100912.25;;;21.67
15544;BMP180;7873;52.230;12.856;2023-03-29T09:42:27;100905.91;;;21.68
15544;BMP180;7873;52.230;12.856;2023-03-29T09:44:59;100911.06;;;21.69
15544;BMP180;7873;52.230;12.856;2023-03-29T09:47:30;100915.94;;;21.66
15544;BMP180;7873;52.230;12.856;2023-03-29T09:50:03;100909.72;;;21.65
15544;BMP180;7873;52.230;12.856;2023-03-29T09:52:32;100906.91;;;21.67
15544;BMP180;7873;52.230;12.856;2023-03-29T09:55:00;100905.56;;;21.63
15544;BMP180;7873;52.230;12.856;2023-03-29T09:57:28;100895.66;;;21.63
15544;BMP180;7873;52.230;12.856;2023-03-29T09:59:56;100902.88;;;21.63
15544;BMP180;7873;52.230;12.856;2023-03-29T10:02:23;100893.97;;;21.62
15544;BMP180;7873;52.230;12.856;2023-03-29T10:04:52;100903.88;;;21.62
15544;BMP180;7873;52.230;12.856;2023-03-29T10:07:21;100894.84;;;21.63
15544;BMP180;7873;52.230;12.856;2023-03-29T10:09:50;100897.63;;;21.61
15544;BMP180;7873;52.230;12.856;2023-03-29T10:12:18;100892.28;;;21.61
15544;BMP180;7873;52.230;12.856;2023-03-29T10:14:47;100896.81;;;21.61
15544;BMP180;7873;52.230;12.856;2023-03-29T10:17:17;100892.44;;;21.60
15544;BMP180;7873;52.230;12.856;2023-03-29T10:19:48;100878.34;;;21.58
15544;BMP180;7873;52.230;12.856;2023-03-29T10:22:17;100883.72;;;21.58
15544;BMP180;7873;52.230;12.856;2023-03-29T10:24:48;100890.78;;;21.59
15544;BMP180;7873;52.230;12.856;2023-03-29T10:27:19;100877.38;;;21.59
15544;BMP180;7873;52.230;12.856;2023-03-29T10:29:48;100890.78;;;21.59
15544;BMP180;7873;52.230;12.856;2023-03-29T10:32:17;100888.25;;;21.57
15544;BMP180;7873;52.230;12.856;2023-03-29T10:34:49;100875.84;;;21.56
15544;BMP180;7873;52.230;12.856;2023-03-29T10:37:17;100876.84;;;21.55
15544;BMP180;7873;52.230;12.856;2023-03-29T10:39:45;100872.50;;;21.54
15544;BMP180;7873;52.230;12.856;2023-03-29T10:42:16;100866.97;;;21.56
15544;BMP180;7873;52.230;12.856;2023-03-29T10:44:52;100862.59;;;21.55
15544;BMP180;7873;52.230;12.856;2023-03-29T10:47:19;100859.94;;;21.55
15544;BMP180;7873;52.230;12.856;2023-03-29T10:49:49;100859.44;;;21.51
15544;BMP180;7873;52.230;12.856;2023-03-29T10:52:16;100861.13;;;21.52
15544;BMP180;7873;52.230;12.856;2023-03-29T10:54:43;100861.25;;;21.51
15544;BMP180;7873;52.230;12.856;2023-03-29T10:57:13;100852.22;;;21.52
15544;BMP180;7873;52.230;12.856;2023-03-29T10:59:48;100856.56;;;21.53
15544;BMP180;7873;52.230;12.856;2023-03-29T11:02:43;100852.41;;;21.50
15544;BMP180;7873;52.230;12.856;2023-03-29T11:05:20;100841.69;;;21.50
15544;BMP180;7873;52.230;12.856;2023-03-29T11:07:59;100844.50;;;21.49
15544;BMP180;7873;52.230;12.856;2023-03-29T11:10:35;100837.31;;;21.49
15544;BMP180;7873;52.230;12.856;2023-03-29T11:13:08;100837.31;;;21.49
15544;BMP180;7873;52.230;12.856;2023-03-29T11:15:46;100837.31;;;21.49
15544;BMP180;7873;52.230;12.856;2023-03-29T11:18:33;100829.44;;;21.48
15544;BMP180;7873;52.230;12.856;2023-03-29T11:21:10;100832.78;;;21.50
15544;BMP180;7873;52.230;12.856;2023-03-29T11:23:46;100828.44;;;21.49
15544;BMP180;7873;52.230;12.856;2023-03-29T11:26:17;100827.44;;;21.50
15544;BMP180;7873;52.230;12.856;2023-03-29T11:28:52;100828.44;;;21.49
15544;BMP180;7873;52.230;12.856;2023-03-29T11:31:31;100817.72;;;21.49
15544;BMP180;7873;52.230;12.856;2023-03-29T11:34:11;100822.94;;;21.50
15544;BMP180;7873;52.230;12.856;2023-03-29T11:36:45;100809.88;;;21.47
15544;BMP180;7873;52.230;12.856;2023-03-29T11:39:25;100816.38;;;21.45
15544;BMP180;7873;52.230;12.856;2023-03-29T11:41:55;100811.34;;;21.42
15544;BMP180;7873;52.230;12.856;2023-03-29T11:44:27;100818.53;;;21.41
15544;BMP180;7873;52.230;12.856;2023-03-29T11:46:58;100818.38;;;21.43
15544;BMP180;7873;52.230;12.856;2023-03-29T11:49:28;100822.75;;;21.44
15544;BMP180;7873;52.230;12.856;2023-03-29T11:52:01;100813.84;;;21.43
15544;BMP180;7873;52.230;12.856;2023-03-29T11:54:32;100818.38;;;21.43
15544;BMP180;7873;52.230;12.856;2023-03-29T11:57:04;100822.88;;;21.42
15544;BMP180;7873;52.230;12.856;2023-03-29T11:59:39;100822.88;;;21.42
15544;BMP180;7873;52.230;12.856;2023-03-29T12:02:11;100819.53;;;21.40
15544;BMP180;7873;52.230;12.856;2023-03-29T12:04:43;100818.88;;;21.38
15544;BMP180;7873;52.230;12.856;2023-03-29T12:07:14;100816.88;;;21.40
15544;BMP180;7873;52.230;12.856;2023-03-29T12:09:46;100813.38;;;21.40
15544;BMP180;7873;52.230;12.856;2023-03-29T12:12:18;100806.16;;;21.40
15544;BMP180;7873;52.230;12.856;2023-03-29T12:14:54;100806.16;;;21.40
15544;BMP180;7873;52.230;12.856;2023-03-29T12:17:27;100800.13;;;21.38
15544;BMP180;7873;52.230;12.856;2023-03-29T12:20:02;100803.66;;;21.39
15544;BMP180;7873;52.230;12.856;2023-03-29T12:22:30;100806.31;;;21.39
15544;BMP180;7873;52.230;12.856;2023-03-29T12:24:58;100795.75;;;21.37
15544;BMP180;7873;52.230;12.856;2023-03-29T12:27:28;100786.91;;;21.37
15544;BMP180;7873;52.230;12.856;2023-03-29T12:30:17;100785.38;;;21.34
15544;BMP180;7873;52.230;12.856;2023-03-29T12:32:57;100782.69;;;21.34
15544;BMP180;7873;52.230;12.856;2023-03-29T12:35:32;100767.63;;;21.33
15544;BMP180;7873;52.230;12.856;2023-03-29T12:38:10;100777.50;;;21.33
15544;BMP180;7873;52.230;12.856;2023-03-29T12:40:40;100777.69;;;21.31
15544;BMP180;7873;52.230;12.856;2023-03-29T12:43:14;100769.78;;;21.30
15544;BMP180;7873;52.230;12.856;2023-03-29T12:45:44;100768.66;;;21.32
15544;BMP180;7873;52.230;12.856;2023-03-29T12:48:15;100752.72;;;21.31
15544;BMP180;7873;52.230;12.856;2023-03-29T12:50:45;100759.09;;;21.30
15544;BMP180;7873;52.230;12.856;2023-03-29T12:53:17;100747.53;;;21.29
15544;BMP180;7873;52.230;12.856;2023-03-29T12:55:52;100745.88;;;21.28
15544;BMP180;7873;52.230;12.856;2023-03-29T12:58:31;100750.56;;;21.26
15544;BMP180;7873;52.230;12.856;2023-03-29T13:01:07;100749.38;;;21.29
15544;BMP180;7873;52.230;12.856;2023-03-29T13:03:40;100754.91;;;21.27
15544;BMP180;7873;52.230;12.856;2023-03-29T13:06:09;100760.09;;;21.29
15544;BMP180;7873;52.230;12.856;2023-03-29T13:08:39;100761.94;;;21.28
15544;BMP180;7873;52.230;12.856;2023-03-29T13:11:10;100761.94;;;21.28
15544;BMP180;7873;52.230;12.856;2023-03-29T13:13:39;100761.75;;;21.30
15544;BMP180;7873;52.230;12.856;2023-03-29T13:16:13;100765.28;;;21.30
15544;BMP180;7873;52.230;12.856;2023-03-29T13:18:49;100751.91;;;21.30
15544;BMP180;7873;52.230;12.856;2023-03-29T13:21:23;100750.22;;;21.29
15544;BMP180;7873;52.230;12.856;2023-03-29T13:23:57;100744.00;;;21.29
15544;BMP180;7873;52.230;12.856;2023-03-29T13:26:46;100727.28;;;21.27
15544;BMP180;7873;52.230;12.856;2023-03-29T13:29:28;100724.78;;;21.25
15544;BMP180;7873;52.230;12.856;2023-03-29T13:32:04;100725.94;;;21.23
15544;BMP180;7873;52.230;12.856;2023-03-29T13:34:43;100728.63;;;21.23
15544;BMP180;7873;52.230;12.856;2023-03-29T13:37:25;100731.44;;;21.21
15544;BMP180;7873;52.230;12.856;2023-03-29T13:39:54;100734.97;;;21.22
15544;BMP180;7873;52.230;12.856;2023-03-29T13:42:23;100733.31;;;21.21
15544;BMP180;7873;52.230;12.856;2023-03-29T13:44:51;100726.41;;;21.18
15544;BMP180;7873;52.230;12.856;2023-03-29T13:47:38;100728.44;;;21.16
15544;BMP180;7873;52.230;12.856;2023-03-29T13:50:13;100727.09;;;21.12
15544;BMP180;7873;52.230;12.856;2023-03-29T13:52:44;100729.78;;;21.12
15544;BMP180;7873;52.230;12.856;2023-03-29T13:55:19;100727.25;;;21.11
15544;BMP180;7873;52.230;12.856;2023-03-29T13:57:52;100725.56;;;21.10
15544;BMP180;7873;52.230;12.856;2023-03-29T14:00:22;100722.88;;;21.10
15544;BMP180;7873;52.230;12.856;2023-03-29T14:02:54;100727.56;;;21.08
15544;BMP180;7873;52.230;12.856;2023-03-29T14:05:24;100720.38;;;21.08
15544;BMP180;7873;52.230;12.856;2023-03-29T14:07:52;100718.88;;;20.98
15544;BMP180;7873;52.230;12.856;2023-03-29T14:10:23;100714.38;;;21.06
15544;BMP180;7873;52.230;12.856;2023-03-29T14:12:51;100711.34;;;21.17
15544;BMP180;7873;52.230;12.856;2023-03-29T14:15:22;100722.41;;;21.22